Time;durP1;ratioP1;P1;durP2;ratioP2;P2;SDS_P1;SDS_P2;PMS_P1;PMS_P2;Temp;Humidity;BMP_temperature;BMP_pressure;BME280_temperature;BME280_humidity;BME280_pressure;Samples;Min_cycle;Max_cycle;Signal;HPM_P1;HPM_P2
2022/12/25 00:00:49;;;;;;;16.65;5.63;;;10.80;82.60;;;;;;5091581;27;20088;-74
2022/12/25 00:03:15;;;;;;;17.08;5.68;;;10.80;82.70;;;;;;5124117;27;20046;-74
2022/12/25 00:05:41;;;;;;;19.45;6.35;;;10.80;82.70;;;;;;5096889;28;20024;-73
2022/12/25 00:08:08;;;;;;;15.40;5.38;;;10.80;82.60;;;;;;5098371;28;20035;-74
2022/12/25 00:10:34;;;;;;;19.42;5.63;;;10.80;82.60;;;;;;5098328;28;20035;-73
2022/12/25 00:13:00;;;;;;;15.40;5.55;;;10.90;82.70;;;;;;5104507;28;20027;-73
2022/12/25 00:15:26;;;;;;;13.90;5.10;;;10.90;82.70;;;;;;5109620;28;20352;-73
2022/12/25 00:17:52;;;;;;;18.02;5.65;;;10.90;82.80;;;;;;5114444;28;20459;-73
2022/12/25 00:20:18;;;;;;;21.80;7.18;;;10.90;82.80;;;;;;5122207;27;20037;-73
2022/12/25 00:22:43;;;;;;;19.85;6.20;;;10.90;82.80;;;;;;5114897;27;20062;-73
2022/12/25 00:25:10;;;;;;;16.33;5.65;;;10.90;82.80;;;;;;5087390;28;20352;-74
2022/12/25 00:27:36;;;;;;;14.40;6.03;;;10.90;82.80;;;;;;5109581;28;20345;-73
2022/12/25 00:30:06;;;;;;;18.42;6.07;;;10.90;82.80;;;;;;5105521;28;20346;-74
2022/12/25 00:32:35;;;;;;;18.52;5.55;;;10.90;82.80;;;;;;5102727;28;20031;-74
2022/12/25 00:35:01;;;;;;;18.58;5.70;;;11.00;82.90;;;;;;5093294;28;20020;-74
2022/12/25 00:37:29;;;;;;;16.30;4.70;;;11.00;82.90;;;;;;5109945;28;20412;-73
2022/12/25 00:39:55;;;;;;;15.38;5.38;;;11.00;82.90;;;;;;5106233;28;20028;-74
2022/12/25 00:42:22;;;;;;;19.33;5.60;;;11.00;82.90;;;;;;5107170;28;20088;-74
2022/12/25 00:44:49;;;;;;;17.88;5.88;;;11.00;82.90;;;;;;5106314;28;20024;-74
2022/12/25 00:47:16;;;;;;;19.50;5.50;;;11.00;82.90;;;;;;5095801;28;20265;-74
2022/12/25 00:49:42;;;;;;;18.52;5.07;;;11.10;83.00;;;;;;5097018;28;20035;-73
2022/12/25 00:52:08;;;;;;;17.05;5.75;;;11.10;82.90;;;;;;5097225;28;20031;-74
2022/12/25 00:54:34;;;;;;;15.15;4.95;;;11.10;82.90;;;;;;5105232;28;20020;-74
2022/12/25 00:56:59;;;;;;;15.75;5.03;;;11.10;82.90;;;;;;5095744;28;20318;-74
2022/12/25 00:59:25;;;;;;;14.68;5.43;;;11.10;82.90;;;;;;5095905;28;20024;-74
2022/12/25 01:01:51;;;;;;;18.00;5.30;;;11.10;83.00;;;;;;5091082;28;20412;-74
2022/12/25 01:04:17;;;;;;;14.63;5.45;;;11.10;83.00;;;;;;5078299;28;20039;-74
2022/12/25 01:06:43;;;;;;;13.18;4.82;;;11.10;83.00;;;;;;5091762;28;20123;-73
2022/12/25 01:11:53;;;;;;;12.55;4.93;;;11.10;83.10;;;;;;5128778;27;20069;-74
2022/12/25 01:14:19;;;;;;;16.08;5.88;;;11.10;83.10;;;;;;5125047;27;20042;-74
2022/12/25 01:16:45;;;;;;;16.98;5.13;;;11.10;83.80;;;;;;5128566;27;20089;-73
2022/12/25 01:19:13;;;;;;;14.05;5.22;;;11.10;83.20;;;;;;5127731;27;20123;-73
2022/12/25 01:21:39;;;;;;;12.13;5.22;;;11.10;83.20;;;;;;5124094;27;20031;-73
2022/12/25 01:24:05;;;;;;;14.50;4.85;;;11.10;83.20;;;;;;5100897;28;20130;-73
2022/12/25 01:26:31;;;;;;;13.35;5.10;;;11.10;83.10;;;;;;5095575;28;20032;-74
2022/12/25 01:28:57;;;;;;;14.88;5.25;;;11.10;83.20;;;;;;5120056;27;20037;-74
2022/12/25 01:31:24;;;;;;;15.45;4.90;;;11.10;83.20;;;;;;5113708;27;20016;-73
2022/12/25 01:33:52;;;;;;;14.23;5.07;;;11.20;83.40;;;;;;5089837;28;20036;-73
2022/12/25 01:36:21;;;;;;;12.60;5.20;;;11.20;83.30;;;;;;5095199;28;20024;-74
2022/12/25 01:38:48;;;;;;;13.30;6.18;;;11.20;83.30;;;;;;5105821;28;20024;-73
2022/12/25 01:41:16;;;;;;;13.63;4.90;;;11.20;83.40;;;;;;5096234;28;20463;-73
2022/12/25 01:44:14;;;;;;;15.40;4.85;;;11.20;83.40;;;;;;5095300;28;20129;-73
2022/12/25 01:46:40;;;;;;;12.30;4.88;;;11.20;83.30;;;;;;5023351;28;20112;-73
2022/12/25 01:49:24;;;;;;;13.73;5.03;;;11.10;83.40;;;;;;5026025;28;20033;-73
2022/12/25 01:52:12;;;;;;;14.10;4.82;;;11.20;83.50;;;;;;5023391;28;20041;-73
2022/12/25 01:54:45;;;;;;;13.85;4.88;;;11.20;83.50;;;;;;5016040;28;20394;-73
2022/12/25 01:57:22;;;;;;;14.18;5.70;;;11.20;83.50;;;;;;5019366;28;20204;-74
2022/12/25 01:59:48;;;;;;;14.20;4.72;;;11.20;83.70;;;;;;5051131;28;20037;-73
2022/12/25 02:02:17;;;;;;;14.35;5.25;;;11.20;83.60;;;;;;5035587;28;20032;-73
2022/12/25 02:04:52;;;;;;;12.60;5.25;;;11.20;83.60;;;;;;5035838;28;20041;-73
2022/12/25 02:07:21;;;;;;;12.68;5.25;;;11.20;83.60;;;;;;5026706;28;20033;-73
2022/12/25 02:09:48;;;;;;;11.88;4.75;;;11.20;83.60;;;;;;5030922;28;20033;-73
2022/12/25 02:12:31;;;;;;;14.35;5.28;;;11.20;83.60;;;;;;5033626;28;20033;-74
2022/12/25 02:15:04;;;;;;;14.07;5.10;;;11.20;83.60;;;;;;5042634;28;20499;-74
2022/12/25 02:17:40;;;;;;;16.23;5.68;;;11.20;83.60;;;;;;5018997;28;20041;-74
2022/12/25 02:20:16;;;;;;;16.33;5.40;;;11.20;83.70;;;;;;5030632;28;20040;-74
2022/12/25 02:23:04;;;;;;;13.20;4.85;;;11.20;83.70;;;;;;5046376;28;20465;-73
2022/12/25 02:25:54;;;;;;;13.88;5.40;;;11.30;83.80;;;;;;5113007;28;20035;-74
2022/12/25 02:28:26;;;;;;;11.77;4.85;;;11.30;83.80;;;;;;5093169;28;20035;-74
2022/12/25 02:31:07;;;;;;;11.02;4.65;;;11.20;83.80;;;;;;5108854;28;20064;-73
2022/12/25 02:34:01;;;;;;;13.07;4.90;;;11.20;83.80;;;;;;5097608;28;20027;-73
2022/12/25 02:36:50;;;;;;;11.38;4.65;;;11.20;83.80;;;;;;5099189;28;20524;-74
2022/12/25 02:42:12;;;;;;;15.15;5.15;;;11.20;83.90;;;;;;5105919;28;20085;-74
2022/12/25 03:07:13;;;;;;;11.35;4.55;;;11.10;84.20;;;;;;5105291;28;20043;-74
2022/12/25 03:13:15;;;;;;;11.70;4.47;;;11.10;84.20;;;;;;5130678;27;20472;-74
2022/12/25 03:18:28;;;;;;;13.98;4.45;;;11.10;84.30;;;;;;5107177;28;20048;-74
2022/12/25 03:26:53;;;;;;;12.18;4.88;;;11.10;84.40;;;;;;5090827;27;20434;-73
2022/12/25 03:32:59;;;;;;;13.48;4.45;;;11.20;84.50;;;;;;5080309;28;20033;-73
2022/12/25 03:36:01;;;;;;;9.63;4.40;;;11.20;84.50;;;;;;5059471;28;20048;-73
2022/12/25 04:37:20;;;;;;;12.43;4.30;;;11.10;84.50;;;;;;5077839;28;20025;-73
2022/12/25 04:39:45;;;;;;;11.45;3.63;;;11.20;84.50;;;;;;5070757;28;20377;-73
2022/12/25 04:42:11;;;;;;;8.38;4.00;;;11.20;84.50;;;;;;5076048;28;20032;-73
2022/12/25 04:44:37;;;;;;;8.95;4.07;;;11.20;84.50;;;;;;5070119;28;20129;-73
2022/12/25 04:47:06;;;;;;;11.70;4.75;;;11.20;84.50;;;;;;5059351;28;20179;-73
2022/12/25 04:49:31;;;;;;;9.35;4.25;;;11.20;84.60;;;;;;5069393;28;20017;-73
2022/12/25 04:51:57;;;;;;;11.50;4.57;;;11.20;84.50;;;;;;5066753;28;20055;-73
2022/12/25 04:54:23;;;;;;;8.27;3.70;;;11.20;84.50;;;;;;5069270;28;20146;-73
2022/12/25 04:56:49;;;;;;;10.68;4.38;;;11.20;84.50;;;;;;5053613;28;20020;-73
2022/12/25 04:59:17;;;;;;;12.15;4.13;;;11.20;84.50;;;;;;5068227;28;20029;-73
2022/12/25 05:01:43;;;;;;;9.80;4.10;;;11.20;84.50;;;;;;5076302;28;20025;-73
2022/12/25 05:04:09;;;;;;;10.85;4.45;;;11.20;84.50;;;;;;5050672;28;20028;-73
2022/12/25 05:06:37;;;;;;;10.57;4.00;;;11.20;84.50;;;;;;5046790;28;20024;-73
2022/12/25 05:09:04;;;;;;;11.05;4.18;;;11.20;84.50;;;;;;5060684;28;20021;-73
2022/12/25 05:11:30;;;;;;;12.63;4.28;;;11.20;84.50;;;;;;5049716;28;20337;-73
2022/12/25 05:13:56;;;;;;;9.82;4.22;;;11.20;84.50;;;;;;5076634;28;20032;-73
2022/12/25 05:16:27;;;;;;;10.82;4.15;;;11.10;84.40;;;;;;5060102;28;20037;-73
2022/12/25 05:18:53;;;;;;;10.13;3.83;;;11.10;84.50;;;;;;5070809;28;20364;-73
2022/12/25 05:21:19;;;;;;;8.57;3.95;;;11.10;84.50;;;;;;5055007;28;20029;-73
2022/12/25 05:23:48;;;;;;;11.23;3.58;;;11.10;84.40;;;;;;5070548;28;20021;-72
2022/12/25 05:26:19;;;;;;;8.43;4.15;;;11.00;84.50;;;;;;5055709;28;20041;-72
2022/12/25 05:28:45;;;;;;;;;;;11.00;84.50;;;;;;5089746;28;20052;-73
2022/12/25 05:31:11;;;;;;;9.75;4.32;;;11.00;84.50;;;;;;5071601;28;19915;-72
2022/12/25 05:33:37;;;;;;;9.85;4.10;;;10.90;84.50;;;;;;5074816;28;20036;-73
2022/12/25 05:36:05;;;;;;;9.73;4.38;;;10.90;84.50;;;;;;5048467;28;20031;-72
2022/12/25 05:38:31;;;;;;;10.73;4.72;;;10.90;84.50;;;;;;5034763;28;20030;-73
2022/12/25 05:40:59;;;;;;;11.60;4.55;;;10.90;84.50;;;;;;5052978;28;20025;-72
2022/12/25 05:43:26;;;;;;;11.00;5.38;;;10.90;84.50;;;;;;5054712;28;20032;-73
2022/12/25 05:45:52;;;;;;;8.38;4.25;;;10.80;84.50;;;;;;5052883;28;20037;-73
2022/12/25 05:48:18;;;;;;;9.20;4.72;;;10.80;84.50;;;;;;5033201;28;20070;-73
2022/12/25 05:50:43;;;;;;;11.75;4.68;;;10.80;84.50;;;;;;5052704;28;20457;-73
2022/12/25 05:53:11;;;;;;;10.38;4.50;;;10.80;84.40;;;;;;5054467;28;20047;-72
2022/12/25 05:55:38;;;;;;;10.80;4.78;;;10.80;84.40;;;;;;5053952;28;20047;-72
2022/12/25 05:58:06;;;;;;;9.73;4.70;;;10.70;84.40;;;;;;5053810;28;20033;-73
2022/12/25 06:00:32;;;;;;;9.77;4.72;;;10.70;84.30;;;;;;5037237;28;20024;-73
2022/12/25 06:02:58;;;;;;;12.63;4.75;;;10.70;84.40;;;;;;5037224;28;20449;-73
2022/12/25 06:05:25;;;;;;;10.45;4.63;;;10.70;84.30;;;;;;5037564;28;20029;-73
2022/12/25 06:07:50;;;;;;;10.18;4.40;;;10.60;84.20;;;;;;5052640;28;20036;-73
2022/12/25 06:10:16;;;;;;;11.93;4.78;;;10.60;84.20;;;;;;5054546;28;20021;-73
2022/12/25 06:12:45;;;;;;;9.95;4.53;;;10.60;84.20;;;;;;5053692;28;20063;-73
2022/12/25 06:15:11;;;;;;;11.32;4.55;;;10.60;84.20;;;;;;5054252;28;20339;-72
2022/12/25 06:17:40;;;;;;;9.50;4.72;;;10.50;84.10;;;;;;5052741;28;20174;-73
2022/12/25 06:20:06;;;;;;;9.65;4.50;;;10.50;84.10;;;;;;5086770;28;20074;-73
2022/12/25 06:22:33;;;;;;;12.27;4.68;;;10.50;84.20;;;;;;5069828;28;20024;-73
2022/12/25 06:24:59;;;;;;;10.25;4.30;;;10.50;84.20;;;;;;5053864;28;20045;-73
2022/12/25 06:27:27;;;;;;;11.25;4.40;;;10.50;84.20;;;;;;5052847;28;20031;-73
2022/12/25 06:29:53;;;;;;;11.55;4.32;;;10.50;84.20;;;;;;5066704;28;20060;-73
2022/12/25 06:32:21;;;;;;;8.40;4.20;;;10.50;84.20;;;;;;5064516;28;20056;-73
2022/12/25 06:34:47;;;;;;;9.50;4.60;;;10.50;84.20;;;;;;5054411;28;20135;-73
2022/12/25 06:37:13;;;;;;;11.02;4.43;;;10.50;84.10;;;;;;5058318;28;20057;-73
2022/12/25 06:39:39;;;;;;;9.40;4.35;;;10.40;84.10;;;;;;5054187;28;20047;-73
2022/12/25 06:42:05;;;;;;;11.93;4.63;;;10.50;84.20;;;;;;5061865;28;20020;-73
2022/12/25 06:44:32;;;;;;;8.68;4.13;;;10.50;84.10;;;;;;5056941;28;20044;-72
2022/12/25 06:46:58;;;;;;;10.48;4.20;;;10.40;84.00;;;;;;5052352;28;20029;-73
2022/12/25 06:49:24;;;;;;;11.65;5.40;;;10.50;84.10;;;;;;5055731;28;20600;-74
2022/12/25 06:51:52;;;;;;;9.68;5.28;;;10.40;84.00;;;;;;5040223;28;20064;-73
2022/12/25 06:54:18;;;;;;;10.35;4.15;;;10.50;84.10;;;;;;5041236;28;20037;-73
2022/12/25 06:56:44;;;;;;;19.05;4.68;;;10.50;84.10;;;;;;5060395;28;20029;-73
2022/12/25 06:59:11;;;;;;;10.43;4.55;;;10.40;84.00;;;;;;5084772;28;20036;-73
2022/12/25 07:01:46;;;;;;;8.85;4.43;;;10.50;84.10;;;;;;5051309;28;20024;-73
2022/12/25 07:04:15;;;;;;;10.85;5.03;;;10.50;84.10;;;;;;5073500;28;20064;-73
2022/12/25 07:06:41;;;;;;;10.32;5.18;;;10.50;84.10;;;;;;5070155;28;20032;-73
2022/12/25 07:09:06;;;;;;;11.05;5.47;;;10.50;84.10;;;;;;5056732;28;20028;-73
2022/12/25 07:11:38;;;;;;;11.30;4.82;;;10.50;84.10;;;;;;5049775;28;20024;-73
2022/12/25 07:14:04;;;;;;;10.05;4.57;;;10.50;84.20;;;;;;5066543;28;20024;-73
2022/12/25 07:16:30;;;;;;;11.65;5.00;;;10.60;84.20;;;;;;5069905;28;20085;-73
2022/12/25 07:19:02;;;;;;;9.35;4.43;;;10.60;84.20;;;;;;5066527;28;20442;-73
2022/12/25 07:21:28;;;;;;;9.95;5.10;;;10.60;84.20;;;;;;5090766;28;20036;-73
2022/12/25 07:23:53;;;;;;;9.95;4.28;;;10.60;84.20;;;;;;5044207;28;20040;-73
2022/12/25 07:26:20;;;;;;;10.50;4.50;;;10.70;84.20;;;;;;5059090;28;20473;-73
2022/12/25 07:28:45;;;;;;;12.95;5.60;;;10.70;84.30;;;;;;5052318;28;20460;-73
2022/12/25 07:31:14;;;;;;;13.57;4.90;;;10.70;84.30;;;;;;5064278;28;20021;-73
2022/12/25 07:33:40;;;;;;;9.48;4.78;;;10.70;84.30;;;;;;5067648;28;20027;-72
2022/12/25 07:36:06;;;;;;;11.80;5.03;;;10.70;84.30;;;;;;5056445;28;20334;-73
2022/12/25 07:38:32;;;;;;;12.25;5.05;;;10.70;84.20;;;;;;5052380;28;20461;-73
2022/12/25 07:40:58;;;;;;;9.73;4.32;;;10.80;84.20;;;;;;5058409;28;20036;-73
2022/12/25 07:43:24;;;;;;;12.57;4.95;;;10.80;84.10;;;;;;5062928;28;20033;-73
2022/12/25 07:45:58;;;;;;;8.65;4.57;;;10.90;84.10;;;;;;5052436;28;20029;-73
2022/12/25 07:48:24;;;;;;;11.65;5.00;;;10.90;84.10;;;;;;5059143;28;20037;-76
2022/12/25 07:51:02;;;;;;;8.70;4.70;;;10.90;84.10;;;;;;5059680;28;20025;-76
2022/12/25 07:53:27;;;;;;;9.95;4.45;;;10.90;84.10;;;;;;5060855;28;20028;-75
2022/12/25 07:56:04;;;;;;;8.88;4.88;;;10.90;84.10;;;;;;5055086;28;20339;-76
2022/12/25 07:58:31;;;;;;;9.57;4.72;;;10.90;84.10;;;;;;5058031;28;20054;-75
2022/12/25 08:01:06;;;;;;;8.05;4.25;;;10.90;84.10;;;;;;5046256;28;20147;-75
2022/12/25 08:03:33;;;;;;;10.68;5.00;;;10.90;84.20;;;;;;5052776;28;20033;-75
2022/12/25 08:06:01;;;;;;;11.70;5.30;;;10.90;84.20;;;;;;5072705;28;20408;-76
2022/12/25 08:08:29;;;;;;;8.43;4.63;;;10.90;84.30;;;;;;5055313;28;20064;-74
2022/12/25 08:10:58;;;;;;;11.20;4.50;;;10.90;84.30;;;;;;5043087;28;20029;-73
2022/12/25 08:13:24;;;;;;;11.23;5.80;;;10.90;84.20;;;;;;5069214;28;20058;-74
2022/12/25 08:15:49;;;;;;;10.18;4.57;;;10.90;84.20;;;;;;5073106;28;20029;-75
2022/12/25 08:18:15;;;;;;;10.50;5.07;;;10.90;84.20;;;;;;5042697;28;20358;-74
2022/12/25 08:20:41;;;;;;;10.95;4.60;;;10.90;84.20;;;;;;5082698;28;20028;-75
2022/12/25 08:23:06;;;;;;;10.95;4.60;;;10.90;84.20;;;;;;5069367;28;20102;-74
2022/12/25 08:25:32;;;;;;;11.70;4.53;;;10.90;84.20;;;;;;5054924;28;20033;-74
2022/12/25 08:28:00;;;;;;;9.98;4.32;;;10.90;84.80;;;;;;5027048;28;20029;-74
2022/12/25 08:30:26;;;;;;;9.02;4.72;;;10.90;84.20;;;;;;5072005;28;20028;-74
2022/12/25 08:32:52;;;;;;;13.82;4.55;;;10.90;84.20;;;;;;5066965;28;21217;-74
2022/12/25 08:35:17;;;;;;;8.70;3.88;;;10.90;84.20;;;;;;5053448;28;20055;-74
2022/12/25 08:37:43;;;;;;;10.48;4.13;;;10.90;84.20;;;;;;5045530;28;20037;-74
2022/12/25 08:40:09;;;;;;;10.18;4.10;;;10.90;84.00;;;;;;5033979;28;20088;-75
2022/12/25 08:42:35;;;;;;;9.85;4.82;;;10.90;84.10;;;;;;5056882;28;20376;-74
2022/12/25 08:45:04;;;;;;;10.23;4.47;;;10.90;84.10;;;;;;5048492;28;20047;-75
2022/12/25 08:47:30;;;;;;;8.55;4.63;;;10.90;84.10;;;;;;5061074;28;20036;-75
2022/12/25 08:49:56;;;;;;;8.98;4.95;;;10.90;84.10;;;;;;5032270;28;20041;-75
2022/12/25 08:52:24;;;;;;;9.20;4.43;;;10.90;84.10;;;;;;5053161;28;20056;-75
2022/12/25 08:54:50;;;;;;;10.50;4.85;;;11.00;84.10;;;;;;5039989;28;20082;-74
2022/12/25 08:57:18;;;;;;;8.30;4.80;;;11.00;84.10;;;;;;5053454;28;20056;-74
2022/12/25 08:59:44;;;;;;;8.85;4.70;;;11.00;84.10;;;;;;5066644;28;20056;-73
2022/12/25 09:02:11;;;;;;;9.07;4.63;;;11.00;84.10;;;;;;5064307;28;20034;-74
2022/12/25 09:04:40;;;;;;;9.45;4.78;;;11.00;84.10;;;;;;5063284;28;20033;-73
2022/12/25 09:07:06;;;;;;;12.77;5.18;;;11.00;84.10;;;;;;5069426;28;20079;-73
2022/12/25 09:09:31;;;;;;;10.10;4.65;;;11.00;84.10;;;;;;5059887;28;20295;-73
2022/12/25 09:11:57;;;;;;;9.38;4.50;;;11.00;84.10;;;;;;5075991;28;20031;-71
2022/12/25 09:14:23;;;;;;;9.40;5.07;;;11.10;84.10;;;;;;5068878;28;20017;-73
2022/12/25 09:16:52;;;;;;;9.38;4.63;;;11.10;84.10;;;;;;5069724;28;20048;-73
2022/12/25 09:19:18;;;;;;;8.68;4.03;;;11.10;84.10;;;;;;5089915;28;20047;-72
2022/12/25 09:21:44;;;;;;;9.25;4.07;;;11.10;84.10;;;;;;5063132;28;20107;-74
2022/12/25 09:24:10;;;;;;;8.50;4.35;;;11.10;84.10;;;;;;5065673;28;20167;-73
2022/12/25 09:26:36;;;;;;;9.23;4.03;;;11.10;84.10;;;;;;5051205;28;20131;-73
2022/12/25 09:29:02;;;;;;;9.82;4.07;;;11.10;84.00;;;;;;5049424;28;20353;-72
2022/12/25 09:31:28;;;;;;;9.23;4.47;;;11.10;84.00;;;;;;5050837;28;20028;-73
2022/12/25 09:33:56;;;;;;;9.77;4.47;;;11.10;83.90;;;;;;5063027;28;20457;-73
2022/12/25 09:36:23;;;;;;;8.88;4.15;;;11.10;83.90;;;;;;5038399;28;20110;-72
2022/12/25 09:38:49;;;;;;;9.20;4.88;;;11.10;83.90;;;;;;5037435;28;20078;-73
2022/12/25 09:41:37;;;;;;;9.70;4.38;;;11.10;83.90;;;;;;5062213;28;20453;-73
2022/12/25 09:44:24;;;;;;;9.10;4.50;;;11.10;83.80;;;;;;5054160;28;20086;-74
2022/12/25 09:46:55;;;;;;;9.57;3.85;;;11.10;83.80;;;;;;5087053;28;20162;-75
2022/12/25 09:49:31;;;;;;;7.55;3.92;;;11.10;83.90;;;;;;5055244;28;20025;-74
2022/12/25 09:52:05;;;;;;;10.80;4.15;;;11.10;83.90;;;;;;5035592;28;20033;-74
2022/12/25 09:54:40;;;;;;;8.90;3.40;;;11.10;83.80;;;;;;5043973;28;20438;-74
2022/12/25 09:57:13;;;;;;;7.95;4.10;;;11.10;83.80;;;;;;5027290;28;20028;-74
2022/12/25 09:59:43;;;;;;;8.43;3.35;;;11.10;83.80;;;;;;5048822;28;20037;-76
2022/12/25 10:02:33;;;;;;;7.78;3.42;;;11.10;83.80;;;;;;5061756;28;20163;-75
2022/12/25 10:05:11;;;;;;;9.73;3.88;;;11.20;83.80;;;;;;5035075;28;20021;-75
2022/12/25 10:07:50;;;;;;;8.38;3.53;;;11.10;83.70;;;;;;5040237;28;20029;-74
2022/12/25 10:10:27;;;;;;;7.93;3.65;;;11.20;83.80;;;;;;5049958;28;20055;-74
2022/12/25 10:13:14;;;;;;;8.43;3.60;;;11.20;83.80;;;;;;5030530;28;20021;-75
2022/12/25 10:16:13;;;;;;;8.48;3.65;;;11.20;83.80;;;;;;5021823;28;20079;-74
2022/12/25 10:19:04;;;;;;;9.70;3.63;;;11.20;83.70;;;;;;5050247;28;20040;-74
2022/12/25 10:21:30;;;;;;;9.60;3.85;;;11.20;83.60;;;;;;5044606;28;20035;-74
2022/12/25 10:24:18;;;;;;;11.52;3.80;;;11.20;83.70;;;;;;5043109;28;20104;-75
2022/12/25 10:26:44;;;;;;;11.85;3.70;;;11.20;83.80;;;;;;5047862;28;20086;-75
2022/12/25 10:29:18;;;;;;;7.03;3.22;;;11.20;83.80;;;;;;5051944;28;20037;-73
2022/12/25 10:31:46;;;;;;;8.07;3.90;;;11.20;83.80;;;;;;5026116;28;20033;-74
2022/12/25 10:34:13;;;;;;;8.18;3.58;;;11.20;83.80;;;;;;5035939;28;20032;-72
2022/12/25 10:36:41;;;;;;;6.95;3.30;;;11.20;83.80;;;;;;5035613;28;20031;-73
2022/12/25 10:39:09;;;;;;;10.00;4.32;;;11.20;83.90;;;;;;5037366;28;20056;-74
2022/12/25 10:41:44;;;;;;;10.50;4.20;;;11.20;83.90;;;;;;5049422;28;20050;-73
2022/12/25 10:44:19;;;;;;;8.57;3.63;;;11.20;83.90;;;;;;5035246;28;20025;-73
2022/12/25 10:46:53;;;;;;;9.20;3.83;;;11.20;84.00;;;;;;5073683;28;20045;-73
2022/12/25 10:49:22;;;;;;;7.88;3.75;;;11.20;84.00;;;;;;5039238;28;20055;-72
2022/12/25 10:51:48;;;;;;;7.45;3.22;;;11.20;84.00;;;;;;5040092;28;20120;-73
2022/12/25 10:54:26;;;;;;;9.15;3.38;;;11.20;83.90;;;;;;5042030;28;20497;-73
2022/12/25 10:57:07;;;;;;;7.40;3.60;;;11.20;83.90;;;;;;5045191;28;20026;-72
2022/12/25 10:59:51;;;;;;;7.45;3.65;;;11.20;83.90;;;;;;5056610;28;20335;-73
2022/12/25 11:02:34;;;;;;;8.40;3.88;;;11.20;84.00;;;;;;5046501;28;20043;-73
2022/12/25 11:05:04;;;;;;;9.60;4.10;;;11.20;84.00;;;;;;5019538;28;20124;-73
2022/12/25 11:07:32;;;;;;;9.98;3.90;;;11.20;84.10;;;;;;5038531;28;20136;-72
2022/12/25 11:10:33;;;;;;;7.85;3.53;;;11.20;84.10;;;;;;5030280;28;20048;-73
2022/12/25 11:13:00;;;;;;;7.75;3.60;;;11.30;84.10;;;;;;5038741;28;20037;-74
2022/12/25 11:15:40;;;;;;;7.05;3.75;;;11.20;84.10;;;;;;5031048;28;20475;-73
2022/12/25 11:18:28;;;;;;;9.95;3.83;;;11.20;84.10;;;;;;5019264;28;20021;-73
2022/12/25 11:21:13;;;;;;;10.20;4.50;;;11.30;84.10;;;;;;5021736;28;20409;-72
2022/12/25 11:23:47;;;;;;;9.25;3.97;;;11.20;84.20;;;;;;5034294;28;20133;-72
2022/12/25 11:26:16;;;;;;;8.40;3.75;;;11.20;84.30;;;;;;5033846;28;20133;-73
2022/12/25 11:28:43;;;;;;;9.80;4.25;;;11.20;84.30;;;;;;5031310;28;20040;-72
2022/12/25 11:31:14;;;;;;;9.43;4.15;;;11.20;84.30;;;;;;5012010;28;20025;-72
2022/12/25 11:34:16;;;;;;;10.95;4.38;;;11.20;84.30;;;;;;5031874;28;20018;-73
2022/12/25 11:36:43;;;;;;;8.88;3.88;;;11.20;84.30;;;;;;5035841;28;20463;-72
2022/12/25 11:39:14;;;;;;;7.75;3.42;;;11.30;84.40;;;;;;5017922;28;20458;-72
2022/12/25 11:41:40;;;;;;;8.57;4.28;;;11.20;84.40;;;;;;5013780;28;20034;-72
2022/12/25 11:44:42;;;;;;;7.65;3.80;;;11.30;84.40;;;;;;5038166;28;20324;-73
2022/12/25 11:47:24;;;;;;;12.23;4.38;;;11.30;84.50;;;;;;5022786;28;20073;-73
2022/12/25 11:50:02;;;;;;;8.18;3.50;;;11.20;84.40;;;;;;5030455;28;20107;-73
2022/12/25 11:52:35;;;;;;;8.85;3.58;;;11.20;85.20;;;;;;5032330;28;20140;-73
2022/12/25 11:55:12;;;;;;;8.25;3.92;;;11.20;84.50;;;;;;5027170;28;20022;-72
2022/12/25 11:57:40;;;;;;;8.00;3.72;;;11.30;84.60;;;;;;5024043;28;20041;-73
2022/12/25 12:00:14;;;;;;;7.00;3.60;;;11.30;84.60;;;;;;5022325;28;20473;-73
2022/12/25 12:02:56;;;;;;;8.23;3.70;;;11.30;84.60;;;;;;5034023;28;20061;-73
2022/12/25 12:05:40;;;;;;;;;;;11.30;84.50;;;;;;5022262;28;20065;-73
2022/12/25 12:08:08;;;;;;;8.52;3.15;;;11.30;84.50;;;;;;5034343;28;19919;-72
2022/12/25 12:10:57;;;;;;;7.93;3.42;;;11.30;84.50;;;;;;5036113;28;20056;-73
2022/12/25 12:13:43;;;;;;;8.55;3.85;;;11.30;84.50;;;;;;5050467;28;20037;-72
2022/12/25 12:16:09;;;;;;;11.45;4.15;;;11.30;84.60;;;;;;5010050;28;20030;-72
2022/12/25 12:18:36;;;;;;;10.15;4.25;;;11.30;84.60;;;;;;5047133;28;20029;-72
2022/12/25 12:21:19;;;;;;;7.65;3.50;;;11.30;84.70;;;;;;5032003;28;20033;-74
2022/12/25 12:24:27;;;;;;;9.10;4.25;;;11.40;84.80;;;;;;5018720;28;20038;-72
2022/12/25 12:27:06;;;;;;;7.60;3.60;;;11.40;84.70;;;;;;5034118;28;20045;-75
2022/12/25 12:29:47;;;;;;;8.60;3.95;;;11.40;84.90;;;;;;5014612;28;20030;-73
2022/12/25 12:32:42;;;;;;;7.88;3.55;;;11.40;84.80;;;;;;5015469;28;20067;-73
2022/12/25 12:35:17;;;;;;;8.68;3.95;;;11.40;84.70;;;;;;5016062;28;20073;-72
2022/12/25 12:37:47;;;;;;;9.23;4.65;;;11.40;84.80;;;;;;5018408;28;20037;-73
2022/12/25 12:40:24;;;;;;;9.73;4.13;;;11.40;84.80;;;;;;5028732;28;20075;-72
2022/12/25 12:42:51;;;;;;;9.02;3.95;;;11.40;84.90;;;;;;5032775;28;20051;-72
2022/12/25 12:45:24;;;;;;;9.77;4.22;;;11.40;84.90;;;;;;5037164;28;20042;-72
2022/12/25 12:47:51;;;;;;;7.13;3.90;;;11.40;85.00;;;;;;5031761;28;20034;-71
2022/12/25 12:50:36;;;;;;;8.07;3.42;;;11.40;85.00;;;;;;5024854;28;20459;-74
2022/12/25 12:53:26;;;;;;;8.98;3.78;;;11.40;85.00;;;;;;5015685;28;20394;-72
2022/12/25 12:55:52;;;;;;;8.52;3.60;;;11.40;85.00;;;;;;5002021;28;20037;-74
2022/12/25 12:58:35;;;;;;;7.80;3.50;;;11.40;85.10;;;;;;5043514;28;20054;-72
2022/12/25 13:01:30;;;;;;;8.13;4.05;;;11.40;85.10;;;;;;5043249;28;20038;-72
2022/12/25 13:04:31;;;;;;;7.85;3.80;;;11.50;85.10;;;;;;5031850;28;20053;-72
2022/12/25 13:07:34;;;;;;;8.88;3.80;;;11.40;85.10;;;;;;5027078;28;20066;-72
2022/12/25 13:10:22;;;;;;;7.00;2.95;;;11.40;85.10;;;;;;5021083;28;20030;-72
2022/12/25 13:12:58;;;;;;;9.75;3.78;;;11.50;85.30;;;;;;5030200;28;20030;-74
2022/12/25 13:15:29;;;;;;;8.68;3.55;;;11.50;85.30;;;;;;5031515;28;20033;-74
2022/12/25 13:18:08;;;;;;;8.48;4.18;;;11.50;85.30;;;;;;5027064;28;20180;-74
2022/12/25 13:20:54;;;;;;;7.85;3.50;;;11.50;85.40;;;;;;5050703;28;20092;-74
2022/12/25 13:23:32;;;;;;;8.90;3.55;;;11.50;85.40;;;;;;5009013;28;20026;-73
2022/12/25 13:26:02;;;;;;;7.22;3.65;;;11.50;85.40;;;;;;5036175;28;20085;-74
2022/12/25 13:28:33;;;;;;;7.22;3.38;;;11.50;85.40;;;;;;5039054;28;20029;-74
2022/12/25 13:31:16;;;;;;;10.77;3.85;;;11.40;85.30;;;;;;5027002;28;20022;-74
2022/12/25 13:33:54;;;;;;;8.75;3.50;;;11.50;85.50;;;;;;5020720;28;20335;-74
2022/12/25 13:36:20;;;;;;;8.57;4.20;;;11.50;85.50;;;;;;5019863;28;20021;-73
2022/12/25 13:38:49;;;;;;;9.50;3.95;;;11.50;85.60;;;;;;5033731;28;20431;-73
2022/12/25 13:44:05;;;;;;;9.50;4.57;;;11.50;85.60;;;;;;5030852;28;20125;-74
2022/12/25 13:46:31;;;;;;;8.27;4.10;;;11.50;85.60;;;;;;5034375;28;20032;-75
2022/12/25 13:48:59;;;;;;;8.98;4.15;;;11.50;85.70;;;;;;5033386;28;20033;-74
2022/12/25 13:51:25;;;;;;;7.82;3.88;;;11.50;85.70;;;;;;5035952;28;20029;-78
2022/12/25 13:54:01;;;;;;;9.30;4.60;;;11.50;85.70;;;;;;5040726;28;20017;-74
2022/12/25 13:56:27;;;;;;;8.20;4.63;;;11.50;85.70;;;;;;5015503;28;20353;-76
2022/12/25 13:58:52;;;;;;;9.73;4.70;;;11.50;85.80;;;;;;5034606;28;20033;-73
2022/12/25 14:01:18;;;;;;;10.07;4.88;;;11.60;85.70;;;;;;5067786;28;20029;-73
2022/12/25 14:03:46;;;;;;;9.75;5.05;;;11.50;85.60;;;;;;5042835;28;20036;-74
2022/12/25 14:06:29;;;;;;;10.40;4.75;;;11.50;85.70;;;;;;5017940;28;20386;-75
2022/12/25 14:08:57;;;;;;;10.88;5.50;;;11.50;85.70;;;;;;5063827;28;20451;-73
2022/12/25 14:11:25;;;;;;;8.20;5.00;;;11.50;85.80;;;;;;5038887;28;20037;-74
2022/12/25 14:13:55;;;;;;;12.32;5.95;;;11.50;85.90;;;;;;5048386;28;20435;-74
2022/12/25 14:16:21;;;;;;;17.52;6.15;;;11.50;85.90;;;;;;5050043;28;20043;-74
2022/12/25 14:19:21;;;;;;;9.15;4.97;;;11.50;85.90;;;;;;5020090;28;20034;-74
2022/12/25 14:21:54;;;;;;;8.20;5.22;;;11.50;85.90;;;;;;5052295;28;20489;-75
2022/12/25 14:24:23;;;;;;;11.50;5.70;;;11.50;86.00;;;;;;5034245;28;20350;-75
2022/12/25 14:26:56;;;;;;;12.32;6.18;;;11.50;86.00;;;;;;5030238;28;20033;-76
2022/12/25 14:29:22;;;;;;;8.90;5.28;;;11.50;86.00;;;;;;5037176;28;20017;-76
2022/12/25 14:31:47;;;;;;;12.27;6.55;;;11.50;85.90;;;;;;5035859;28;20450;-76
2022/12/25 14:34:18;;;;;;;12.15;6.13;;;11.50;86.00;;;;;;5054999;28;20029;-75
2022/12/25 14:36:44;;;;;;;10.68;6.63;;;11.50;86.00;;;;;;5045723;28;20469;-75
2022/12/25 14:39:39;;;;;;;10.30;6.68;;;11.50;86.00;;;;;;5033743;28;20106;-75
2022/12/25 14:42:20;;;;;;;12.70;6.53;;;11.60;86.00;;;;;;5049744;28;20064;-75
2022/12/25 14:45:24;;;;;;;11.95;6.50;;;11.50;86.00;;;;;;5024611;28;20028;-74
2022/12/25 14:47:52;;;;;;;10.93;6.68;;;11.50;86.00;;;;;;5052933;28;20036;-74
2022/12/25 14:50:54;;;;;;;12.85;6.72;;;11.50;86.10;;;;;;5062467;28;20097;-75